Time;durP1;ratioP1;P1;durP2;ratioP2;P2;SDS_P1;SDS_P2;PMS_P1;PMS_P2;Temp;Humidity;BMP_temperature;BMP_pressure;BME280_temperature;BME280_humidity;BME280_pressure;Samples;Min_cycle;Max_cycle;Signal;HPM_P1;HPM_P2
2023/09/26 00:00:31;;;;;;;7.28;4.57;;;14.30;99.90;;;;;;5026917;28;20060;-78
2023/09/26 00:02:57;;;;;;;7.22;4.32;;;14.30;99.90;;;;;;5061961;28;20067;-78
2023/09/26 00:05:23;;;;;;;8.30;4.50;;;14.30;99.90;;;;;;5044640;28;20048;-79
2023/09/26 00:07:49;;;;;;;7.53;4.85;;;14.30;99.90;;;;;;5027507;28;20404;-76
2023/09/26 00:10:15;;;;;;;7.20;5.07;;;14.30;99.90;;;;;;5024363;28;20044;-77
2023/09/26 00:12:42;;;;;;;9.05;5.18;;;14.30;99.90;;;;;;5043912;28;20060;-77
2023/09/26 00:15:08;;;;;;;8.02;5.05;;;14.30;99.90;;;;;;5044706;28;20048;-76
2023/09/26 00:17:34;;;;;;;6.00;4.05;;;14.30;99.90;;;;;;5062549;28;20051;-79
2023/09/26 00:20:00;;;;;;;9.50;5.57;;;14.30;99.90;;;;;;5061986;28;20458;-77
2023/09/26 00:22:26;;;;;;;6.35;4.70;;;14.20;99.90;;;;;;5061316;28;20116;-79
2023/09/26 00:24:52;;;;;;;8.50;4.93;;;14.20;99.90;;;;;;5043613;28;20051;-79
2023/09/26 00:27:18;;;;;;;8.73;3.95;;;14.20;99.90;;;;;;5044079;28;20044;-77
2023/09/26 00:29:44;;;;;;;7.38;4.82;;;14.20;99.90;;;;;;5062650;28;20114;-78
2023/09/26 00:32:11;;;;;;;9.05;5.53;;;14.20;99.90;;;;;;5061517;28;20053;-78
2023/09/26 00:34:36;;;;;;;11.30;5.28;;;14.20;99.90;;;;;;5044177;28;20120;-79
2023/09/26 00:37:03;;;;;;;7.70;5.05;;;14.20;99.90;;;;;;5043091;28;20131;-77
2023/09/26 00:39:30;;;;;;;7.55;4.85;;;14.20;99.90;;;;;;5061698;28;20761;-78
2023/09/26 00:41:55;;;;;;;8.65;4.78;;;14.10;99.90;;;;;;5043959;28;20052;-79
2023/09/26 00:44:21;;;;;;;7.47;5.05;;;14.10;99.90;;;;;;5043451;28;20492;-77
2023/09/26 00:46:47;;;;;;;6.50;5.13;;;14.10;99.90;;;;;;5044250;28;20045;-79
2023/09/26 00:49:13;;;;;;;10.43;5.57;;;14.00;99.90;;;;;;5061606;28;20041;-79
2023/09/26 00:51:38;;;;;;;9.65;6.10;;;14.00;99.90;;;;;;5060941;28;20039;-77
2023/09/26 00:54:09;;;;;;;9.23;5.60;;;14.10;99.90;;;;;;5062671;28;20044;-76
2023/09/26 00:56:35;;;;;;;8.68;6.03;;;14.00;99.90;;;;;;5066060;28;20470;-78
2023/09/26 00:59:00;;;;;;;7.75;5.03;;;14.00;99.90;;;;;;5065390;28;20072;-79
2023/09/26 01:01:30;;;;;;;8.55;6.10;;;14.00;99.90;;;;;;5046937;28;20483;-78
2023/09/26 01:03:57;;;;;;;8.75;6.38;;;14.00;99.90;;;;;;5046906;28;20040;-77
2023/09/26 01:06:23;;;;;;;8.95;5.57;;;14.00;99.90;;;;;;5060453;28;20044;-77
2023/09/26 01:08:48;;;;;;;10.93;7.13;;;14.00;99.90;;;;;;5051995;28;20037;-79
2023/09/26 01:11:15;;;;;;;9.82;5.63;;;14.10;99.90;;;;;;5046556;28;20087;-79
2023/09/26 01:13:40;;;;;;;10.48;6.35;;;14.10;99.90;;;;;;5030315;28;20072;-76
2023/09/26 01:16:16;;;;;;;8.93;6.10;;;14.10;99.90;;;;;;5065681;28;20561;-78
2023/09/26 01:18:43;;;;;;;8.90;6.13;;;14.00;99.90;;;;;;5047155;28;20099;-76
2023/09/26 01:21:09;;;;;;;9.27;6.68;;;14.00;99.90;;;;;;5064350;28;20049;-78
2023/09/26 01:23:38;;;;;;;8.32;6.32;;;14.00;99.90;;;;;;5047044;28;22015;-79
2023/09/26 01:26:04;;;;;;;10.95;6.35;;;14.00;99.90;;;;;;5046847;28;20044;-79
2023/09/26 01:28:29;;;;;;;8.70;5.50;;;14.00;99.90;;;;;;5064938;28;20044;-78
2023/09/26 01:30:55;;;;;;;8.50;5.25;;;13.90;99.90;;;;;;5064916;28;20039;-78
2023/09/26 01:33:21;;;;;;;9.45;5.88;;;14.00;99.90;;;;;;5063974;28;20063;-77
2023/09/26 01:35:48;;;;;;;8.10;5.68;;;13.90;99.90;;;;;;5063996;28;20449;-78
2023/09/26 01:38:14;;;;;;;10.90;6.72;;;13.90;99.90;;;;;;5030443;28;20736;-78
2023/09/26 01:40:43;;;;;;;8.48;5.55;;;13.90;99.90;;;;;;5064290;28;20028;-79
2023/09/26 01:43:08;;;;;;;9.13;5.75;;;13.90;99.90;;;;;;5063967;28;20487;-77
2023/09/26 01:45:34;;;;;;;8.75;5.97;;;13.80;99.90;;;;;;5065247;28;20094;-77
2023/09/26 01:48:00;;;;;;;11.73;6.40;;;13.90;99.90;;;;;;5064564;28;20124;-77
2023/09/26 01:50:28;;;;;;;7.85;5.28;;;13.80;99.90;;;;;;5045116;28;20063;-79
2023/09/26 01:52:53;;;;;;;9.45;5.88;;;13.80;99.90;;;;;;5046786;28;20414;-79
2023/09/26 01:55:20;;;;;;;8.73;5.32;;;13.80;99.90;;;;;;5063675;28;20043;-77
2023/09/26 01:57:47;;;;;;;8.38;5.40;;;13.80;99.90;;;;;;5030251;28;20136;-79
2023/09/26 02:00:13;;;;;;;10.45;5.47;;;13.80;99.90;;;;;;5064251;28;20406;-79
2023/09/26 02:02:44;;;;;;;9.40;5.93;;;13.80;99.90;;;;;;5029423;28;20051;-77
2023/09/26 02:05:11;;;;;;;8.15;5.65;;;13.80;99.90;;;;;;5046058;28;20494;-79
2023/09/26 02:07:37;;;;;;;7.28;5.53;;;13.80;99.90;;;;;;5031354;28;20539;-77
2023/09/26 02:10:03;;;;;;;9.35;6.22;;;13.80;99.90;;;;;;5036694;28;20037;-79
2023/09/26 02:12:30;;;;;;;11.45;5.78;;;13.80;99.90;;;;;;5045870;28;20465;-79
2023/09/26 02:14:56;;;;;;;9.88;6.07;;;13.80;99.90;;;;;;5046097;28;20707;-76
2023/09/26 02:17:22;;;;;;;11.20;6.35;;;13.70;99.90;;;;;;5046428;28;20094;-79
2023/09/26 02:19:47;;;;;;;9.35;5.97;;;13.70;99.90;;;;;;5045570;28;20045;-79
2023/09/26 02:22:13;;;;;;;11.68;6.75;;;13.80;99.90;;;;;;5044615;28;20045;-77
2023/09/26 02:24:39;;;;;;;11.70;7.07;;;13.70;99.90;;;;;;5045863;28;20052;-78
2023/09/26 02:27:05;;;;;;;9.75;6.05;;;13.70;99.90;;;;;;5046271;28;20041;-77
2023/09/26 02:29:30;;;;;;;6.95;5.32;;;13.60;99.90;;;;;;5063122;28;20074;-80
2023/09/26 02:31:56;;;;;;;9.02;5.90;;;13.70;99.90;;;;;;5063961;28;20083;-78
2023/09/26 02:34:25;;;;;;;7.38;5.30;;;13.60;99.90;;;;;;5045744;28;20076;-78
2023/09/26 02:36:50;;;;;;;9.32;6.25;;;13.70;99.90;;;;;;5044593;28;20775;-79
2023/09/26 02:39:17;;;;;;;8.45;6.40;;;13.70;99.90;;;;;;5062831;28;20124;-79
2023/09/26 02:41:43;;;;;;;7.75;5.65;;;13.60;99.90;;;;;;5046245;28;20489;-77
2023/09/26 02:44:08;;;;;;;8.85;5.05;;;13.60;99.90;;;;;;5045310;28;20048;-76
2023/09/26 02:46:34;;;;;;;7.75;5.50;;;13.70;99.90;;;;;;5045645;28;20041;-79
2023/09/26 02:49:00;;;;;;;9.43;6.05;;;13.70;99.90;;;;;;5045684;28;20048;-77
2023/09/26 02:51:26;;;;;;;9.55;5.93;;;13.70;99.90;;;;;;5061976;28;20071;-76
2023/09/26 02:53:52;;;;;;;8.95;6.10;;;13.60;99.90;;;;;;5044633;28;20071;-79
2023/09/26 02:56:18;;;;;;;10.48;5.63;;;13.60;99.90;;;;;;5044893;28;20439;-77
2023/09/26 02:58:43;;;;;;;8.10;5.95;;;13.60;99.90;;;;;;5045327;28;20087;-77
2023/09/26 03:01:15;;;;;;;10.15;6.10;;;13.60;99.90;;;;;;5062868;28;20033;-79
2023/09/26 03:03:41;;;;;;;12.07;7.05;;;13.60;99.90;;;;;;5044775;28;20494;-79
2023/09/26 03:06:07;;;;;;;9.95;6.13;;;13.60;99.90;;;;;;5042674;28;20046;-78
2023/09/26 03:08:33;;;;;;;10.88;6.45;;;13.60;99.90;;;;;;5042958;28;20045;-77
2023/09/26 03:11:02;;;;;;;11.02;7.45;;;13.60;99.90;;;;;;5062194;28;20510;-79
2023/09/26 03:13:32;;;;;;;9.30;6.80;;;13.60;99.90;;;;;;5062517;28;20347;-79
2023/09/26 03:15:59;;;;;;;9.75;6.57;;;13.60;99.90;;;;;;5045294;28;20383;-79
2023/09/26 03:18:27;;;;;;;10.23;7.10;;;13.60;99.90;;;;;;5028041;28;20040;-77
2023/09/26 03:20:53;;;;;;;9.73;6.80;;;13.60;99.90;;;;;;5061749;28;20052;-78
2023/09/26 03:23:21;;;;;;;10.45;6.07;;;13.60;99.90;;;;;;5062723;28;20627;-79
2023/09/26 03:25:46;;;;;;;13.18;6.80;;;13.50;99.90;;;;;;5027923;28;20113;-78
2023/09/26 03:28:12;;;;;;;11.30;6.47;;;13.60;99.90;;;;;;5062217;28;20114;-76
2023/09/26 03:30:42;;;;;;;9.98;6.05;;;13.60;99.90;;;;;;5045262;28;20043;-78
2023/09/26 03:33:08;;;;;;;16.02;7.18;;;13.60;99.90;;;;;;5045766;28;20044;-77
2023/09/26 03:35:33;;;;;;;12.00;6.60;;;13.50;99.90;;;;;;5026961;28;20055;-75
2023/09/26 03:37:59;;;;;;;18.70;8.00;;;13.50;99.90;;;;;;5044425;28;20517;-77
2023/09/26 03:40:25;;;;;;;11.27;6.68;;;13.50;99.90;;;;;;5062641;28;20760;-79
2023/09/26 03:42:50;;;;;;;12.90;6.90;;;13.50;99.90;;;;;;5044801;28;20040;-77
2023/09/26 03:45:16;;;;;;;10.43;6.65;;;13.50;99.90;;;;;;5061805;28;20102;-78
2023/09/26 03:47:41;;;;;;;12.10;6.75;;;13.50;99.90;;;;;;5028434;28;20466;-78
2023/09/26 03:50:08;;;;;;;10.57;6.53;;;13.50;99.90;;;;;;5027638;28;20511;-77
2023/09/26 03:52:34;;;;;;;9.90;5.63;;;13.40;99.90;;;;;;5044088;28;20054;-79
2023/09/26 03:54:59;;;;;;;10.70;7.63;;;13.40;99.90;;;;;;5044721;28;20045;-78
2023/09/26 03:57:25;;;;;;;10.30;7.43;;;13.40;99.90;;;;;;5044481;28;20047;-78
2023/09/26 03:59:51;;;;;;;11.15;6.40;;;13.40;99.90;;;;;;5043926;28;20117;-79
2023/09/26 04:02:17;;;;;;;12.65;7.40;;;13.40;99.90;;;;;;5044229;28;20523;-78
2023/09/26 04:04:43;;;;;;;12.60;6.40;;;13.40;99.90;;;;;;5044675;28;20063;-78
2023/09/26 04:07:08;;;;;;;10.57;6.53;;;13.30;99.90;;;;;;5033524;28;20479;-78
2023/09/26 04:09:34;;;;;;;11.18;6.97;;;13.40;99.90;;;;;;5027301;28;20550;-78
2023/09/26 04:12:03;;;;;;;12.32;6.47;;;13.30;99.90;;;;;;5062900;28;20041;-76
2023/09/26 04:14:30;;;;;;;9.75;6.75;;;13.30;99.90;;;;;;5044469;28;20398;-77
2023/09/26 04:16:56;;;;;;;10.40;6.28;;;13.30;99.90;;;;;;5044129;28;20482;-79
2023/09/26 04:19:22;;;;;;;11.80;7.45;;;13.30;99.90;;;;;;5043771;28;20044;-78
2023/09/26 04:21:48;;;;;;;14.27;8.15;;;13.30;99.90;;;;;;5027045;28;20462;-76
2023/09/26 04:24:14;;;;;;;10.35;6.60;;;13.30;99.90;;;;;;5043434;28;20044;-78
2023/09/26 04:26:39;;;;;;;11.18;6.85;;;13.30;99.90;;;;;;5062277;28;20093;-78
2023/09/26 04:29:05;;;;;;;13.00;7.50;;;13.30;99.90;;;;;;5063100;28;20447;-77
2023/09/26 04:31:31;;;;;;;12.15;7.28;;;13.30;99.90;;;;;;5047835;28;20063;-78
2023/09/26 04:33:57;;;;;;;11.60;7.50;;;13.30;99.90;;;;;;5065704;28;20055;-78
2023/09/26 04:36:23;;;;;;;12.75;8.05;;;13.30;99.90;;;;;;5064846;28;20045;-76
2023/09/26 04:38:48;;;;;;;14.05;8.05;;;13.30;99.90;;;;;;5048005;28;20063;-76
2023/09/26 04:41:14;;;;;;;14.60;6.95;;;13.30;99.90;;;;;;5047189;28;20063;-79
2023/09/26 04:43:40;;;;;;;9.50;6.45;;;13.20;99.90;;;;;;5047485;28;20036;-76
2023/09/26 04:46:13;;;;;;;13.38;8.32;;;13.20;99.90;;;;;;5048716;28;20044;-76
2023/09/26 04:48:43;;;;;;;11.48;7.00;;;13.20;99.90;;;;;;5065283;28;20041;-76
2023/09/26 04:51:11;;;;;;;11.60;7.20;;;13.20;99.90;;;;;;5046580;28;20730;-78
2023/09/26 04:53:37;;;;;;;13.52;8.00;;;13.30;99.90;;;;;;5057348;28;20048;-77
2023/09/26 04:56:02;;;;;;;11.73;7.80;;;13.20;99.90;;;;;;5047151;28;20045;-79
2023/09/26 04:58:30;;;;;;;13.45;8.05;;;13.20;99.90;;;;;;5046331;28;20504;-76
2023/09/26 05:00:57;;;;;;;14.95;7.60;;;13.20;99.90;;;;;;5039624;28;20045;-76
2023/09/26 05:03:23;;;;;;;13.50;8.35;;;13.20;99.90;;;;;;5042250;28;20098;-82
2023/09/26 05:05:49;;;;;;;11.80;7.72;;;13.20;99.90;;;;;;5042935;28;20530;-78
2023/09/26 05:08:15;;;;;;;14.45;8.38;;;13.10;99.90;;;;;;5038146;28;20050;-76
2023/09/26 05:10:41;;;;;;;13.95;7.88;;;13.10;99.90;;;;;;5030848;28;20146;-77
2023/09/26 05:13:07;;;;;;;12.60;7.50;;;13.10;99.90;;;;;;5047943;28;20110;-78
2023/09/26 05:15:34;;;;;;;16.67;8.63;;;13.10;99.90;;;;;;5059545;28;20112;-75
2023/09/26 05:18:02;;;;;;;12.55;7.63;;;13.10;99.90;;;;;;5054848;28;20112;-77
2023/09/26 05:20:28;;;;;;;15.70;6.90;;;13.10;99.90;;;;;;5033832;28;20044;-76
2023/09/26 05:22:53;;;;;;;12.18;6.50;;;13.10;99.90;;;;;;5029371;28;20399;-77
2023/09/26 05:25:19;;;;;;;14.73;7.35;;;13.10;99.90;;;;;;5038815;28;20531;-76
2023/09/26 05:27:45;;;;;;;11.75;7.55;;;13.10;99.90;;;;;;5047263;28;20036;-76
2023/09/26 05:30:12;;;;;;;11.32;7.15;;;13.00;99.90;;;;;;5064301;28;20048;-76
2023/09/26 05:32:39;;;;;;;13.98;7.63;;;13.00;99.90;;;;;;5064492;28;20036;-76
2023/09/26 05:35:06;;;;;;;11.48;8.13;;;13.00;99.90;;;;;;5064384;28;20322;-75
2023/09/26 05:37:35;;;;;;;11.80;6.93;;;13.00;99.90;;;;;;5058041;28;20072;-75
2023/09/26 05:40:09;;;;;;;13.00;8.10;;;13.00;99.90;;;;;;5055154;28;20036;-78
2023/09/26 05:42:36;;;;;;;15.98;7.72;;;13.00;99.90;;;;;;5024925;28;20387;-79
2023/09/26 05:45:11;;;;;;;15.43;7.57;;;13.00;99.90;;;;;;5043097;28;20063;-78
2023/09/26 05:47:38;;;;;;;14.55;9.00;;;13.00;99.90;;;;;;5040465;28;20078;-77
2023/09/26 05:50:04;;;;;;;14.07;7.82;;;13.00;99.90;;;;;;5046055;28;20495;-80
2023/09/26 05:52:30;;;;;;;11.95;7.63;;;13.00;99.90;;;;;;5044094;28;20033;-79
2023/09/26 05:54:56;;;;;;;13.90;9.38;;;13.00;99.90;;;;;;5028720;28;20049;-78
2023/09/26 05:57:21;;;;;;;14.15;8.00;;;13.00;99.90;;;;;;5028124;28;20047;-76
2023/09/26 05:59:47;;;;;;;10.70;7.53;;;13.10;99.90;;;;;;5041686;28;20728;-75
2023/09/26 06:02:14;;;;;;;16.10;8.40;;;13.10;99.90;;;;;;5040244;28;20143;-76
2023/09/26 06:04:42;;;;;;;13.77;8.50;;;13.10;99.90;;;;;;5055981;28;20098;-76
2023/09/26 06:07:08;;;;;;;12.20;7.07;;;13.10;99.90;;;;;;5067774;28;20205;-78
2023/09/26 06:09:35;;;;;;;13.98;8.48;;;13.20;99.90;;;;;;5059260;28;20225;-80
2023/09/26 06:12:07;;;;;;;13.27;8.68;;;13.30;99.90;;;;;;5061275;28;20036;-80
2023/09/26 06:14:33;;;;;;;14.25;9.07;;;13.30;99.90;;;;;;5028666;28;20052;-78
2023/09/26 06:16:59;;;;;;;16.58;9.32;;;13.30;99.90;;;;;;5046284;28;20131;-78
2023/09/26 06:19:25;;;;;;;12.45;7.90;;;13.30;99.90;;;;;;5063762;28;20103;-79
2023/09/26 06:21:50;;;;;;;15.88;8.13;;;13.40;99.90;;;;;;5044755;28;20040;-77
2023/09/26 06:24:16;;;;;;;13.50;8.05;;;13.40;99.90;;;;;;5045780;28;20522;-78
2023/09/26 06:26:41;;;;;;;17.52;9.48;;;13.40;99.90;;;;;;5029530;28;20080;-78
2023/09/26 06:29:07;;;;;;;18.42;9.40;;;13.50;99.90;;;;;;5064343;28;20046;-82
2023/09/26 06:31:32;;;;;;;14.20;8.00;;;13.50;99.90;;;;;;5045440;28;20040;-78
2023/09/26 06:34:00;;;;;;;14.55;8.70;;;13.50;99.90;;;;;;5063999;28;20044;-79
2023/09/26 06:36:30;;;;;;;10.63;7.60;;;13.50;99.90;;;;;;5035733;28;20033;-76
2023/09/26 06:38:57;;;;;;;15.63;9.52;;;13.60;99.90;;;;;;5042615;28;20325;-78
2023/09/26 06:41:22;;;;;;;13.10;8.25;;;13.60;99.90;;;;;;5061115;28;20036;-75
2023/09/26 06:43:48;;;;;;;15.15;9.07;;;13.60;99.90;;;;;;5038093;28;20052;-83
2023/09/26 06:46:13;;;;;;;18.90;9.63;;;13.60;99.90;;;;;;5058627;28;20056;-78
2023/09/26 06:48:41;;;;;;;17.65;9.50;;;13.70;99.90;;;;;;5037385;28;20461;-77
2023/09/26 06:51:08;;;;;;;14.38;8.95;;;13.70;99.90;;;;;;5033588;28;20037;-77
2023/09/26 06:53:34;;;;;;;15.98;9.00;;;13.70;99.90;;;;;;5045263;28;20059;-77
2023/09/26 06:56:01;;;;;;;14.23;8.73;;;13.70;99.90;;;;;;5059510;28;20439;-77
2023/09/26 06:58:27;;;;;;;16.40;9.13;;;13.70;99.90;;;;;;5045134;28;20048;-77
2023/09/26 07:00:53;;;;;;;15.20;8.38;;;13.80;99.90;;;;;;5045995;28;20555;-77
2023/09/26 07:03:18;;;;;;;17.27;9.52;;;13.80;99.90;;;;;;5042335;28;20053;-77
2023/09/26 07:05:44;;;;;;;14.18;8.13;;;13.80;99.90;;;;;;5026563;28;20047;-77
2023/09/26 07:08:12;;;;;;;15.10;9.48;;;13.80;99.90;;;;;;5051424;28;20040;-78
2023/09/26 07:10:38;;;;;;;16.35;10.48;;;13.80;99.90;;;;;;5056420;28;20132;-78
2023/09/26 07:13:04;;;;;;;14.98;9.10;;;13.80;99.90;;;;;;5055781;28;20127;-77
2023/09/26 07:15:31;;;;;;;15.25;8.98;;;13.90;99.90;;;;;;5027403;28;20090;-78
2023/09/26 07:17:59;;;;;;;16.60;9.30;;;13.90;99.90;;;;;;5043703;28;20344;-78
2023/09/26 07:20:28;;;;;;;15.95;9.32;;;13.90;99.90;;;;;;5060229;28;20115;-79
2023/09/26 07:22:54;;;;;;;16.50;9.05;;;13.90;99.90;;;;;;5055026;28;20059;-79
2023/09/26 07:25:21;;;;;;;12.93;8.70;;;14.00;99.90;;;;;;5043440;28;20106;-77
2023/09/26 07:27:46;;;;;;;16.08;9.35;;;14.00;99.90;;;;;;5043873;28;20053;-78
2023/09/26 07:30:12;;;;;;;14.07;9.40;;;14.00;99.90;;;;;;5043377;28;20052;-78
2023/09/26 07:32:38;;;;;;;13.85;8.27;;;14.10;99.90;;;;;;5042424;28;20332;-78
2023/09/26 07:35:04;;;;;;;14.95;9.48;;;14.10;99.90;;;;;;5043290;28;20048;-78
2023/09/26 07:37:32;;;;;;;19.83;9.38;;;14.20;99.90;;;;;;5020891;28;20049;-79
2023/09/26 07:39:57;;;;;;;16.40;9.68;;;14.20;99.90;;;;;;5036447;28;20067;-78
2023/09/26 07:42:23;;;;;;;16.08;10.18;;;14.30;99.90;;;;;;5042162;28;20141;-78
2023/09/26 07:44:49;;;;;;;14.32;8.90;;;14.30;99.90;;;;;;5044100;28;20941;-78
2023/09/26 07:47:15;;;;;;;16.33;9.65;;;14.40;99.90;;;;;;5043831;28;20076;-77
2023/09/26 07:49:40;;;;;;;17.52;9.25;;;14.50;99.90;;;;;;5061552;28;20132;-78
2023/09/26 07:52:06;;;;;;;17.20;9.52;;;14.50;99.90;;;;;;5063552;28;20028;-78
2023/09/26 07:54:32;;;;;;;15.32;9.55;;;14.70;99.90;;;;;;5043777;28;20037;-78
2023/09/26 07:56:58;;;;;;;17.98;9.63;;;14.70;99.90;;;;;;5060321;28;20063;-78
2023/09/26 07:59:24;;;;;;;15.70;9.70;;;14.80;99.90;;;;;;5042942;28;20081;-78
2023/09/26 08:01:49;;;;;;;14.32;8.65;;;14.80;99.90;;;;;;5029395;28;20033;-78
2023/09/26 08:04:15;;;;;;;15.45;8.80;;;14.80;99.90;;;;;;5041666;28;20052;-75
2023/09/26 08:06:41;;;;;;;11.63;8.23;;;14.80;99.90;;;;;;5041410;28;20127;-72
2023/09/26 08:09:06;;;;;;;16.55;9.05;;;14.80;99.90;;;;;;5046684;28;20127;-72
2023/09/26 08:11:32;;;;;;;14.52;9.10;;;14.80;99.90;;;;;;5045693;28;20462;-72
2023/09/26 08:13:57;;;;;;;15.50;9.60;;;14.80;99.90;;;;;;5064101;28;20161;-73
2023/09/26 08:16:23;;;;;;;17.52;9.68;;;14.80;99.90;;;;;;5045538;28;20196;-72
2023/09/26 08:18:50;;;;;;;15.02;9.23;;;14.80;99.90;;;;;;5046312;28;20116;-72
2023/09/26 08:21:16;;;;;;;15.50;8.98;;;14.90;99.90;;;;;;5063371;28;20044;-73
2023/09/26 08:23:42;;;;;;;18.30;10.02;;;14.90;99.90;;;;;;5046714;28;20045;-73
2023/09/26 08:26:11;;;;;;;14.65;8.50;;;14.90;99.90;;;;;;5030271;28;20445;-72
2023/09/26 08:28:37;;;;;;;16.40;10.50;;;14.90;99.90;;;;;;5047093;28;20047;-72
2023/09/26 08:31:10;;;;;;;16.38;9.80;;;14.90;99.90;;;;;;5046291;28;20074;-72
2023/09/26 08:33:37;;;;;;;14.57;8.45;;;14.90;99.90;;;;;;5046383;28;20040;-72
2023/09/26 08:36:12;;;;;;;15.88;9.50;;;15.00;99.90;;;;;;5046005;28;20479;-73
2023/09/26 08:38:37;;;;;;;17.67;9.40;;;15.10;99.90;;;;;;5064171;28;20121;-73
2023/09/26 08:41:05;;;;;;;14.75;8.10;;;15.10;99.90;;;;;;5064767;28;20136;-70
2023/09/26 08:43:33;;;;;;;18.02;9.10;;;15.10;99.90;;;;;;5064151;28;20044;-70
2023/09/26 08:45:59;;;;;;;17.23;8.95;;;15.20;99.90;;;;;;5046002;28;20041;-69
2023/09/26 08:48:24;;;;;;;16.95;9.93;;;15.20;99.90;;;;;;5045920;28;20130;-70
2023/09/26 08:50:51;;;;;;;17.45;9.88;;;15.20;99.90;;;;;;5063265;28;20032;-70
2023/09/26 08:53:16;;;;;;;14.35;8.68;;;15.20;99.90;;;;;;5064307;28;20059;-69
2023/09/26 08:55:43;;;;;;;14.82;9.90;;;15.30;99.90;;;;;;5045830;28;20041;-69
2023/09/26 08:58:09;;;;;;;12.45;8.77;;;15.40;99.90;;;;;;5045717;28;20461;-71
2023/09/26 09:00:35;;;;;;;14.20;8.05;;;15.40;99.90;;;;;;5046746;28;20356;-70
2023/09/26 09:03:00;;;;;;;12.93;7.90;;;15.50;99.90;;;;;;5063834;28;20048;-70
2023/09/26 09:05:26;;;;;;;13.95;9.02;;;15.50;99.90;;;;;;5062532;28;20040;-69
2023/09/26 09:07:52;;;;;;;13.63;7.53;;;15.60;99.90;;;;;;5047609;28;20721;-70
2023/09/26 09:10:17;;;;;;;10.98;7.45;;;15.70;99.90;;;;;;5026306;28;20041;-69
2023/09/26 09:12:47;;;;;;;14.82;9.15;;;15.70;99.90;;;;;;5043511;28;20041;-70
2023/09/26 09:15:20;;;;;;;16.33;9.20;;;15.70;99.90;;;;;;5024136;28;20075;-71
2023/09/26 09:17:46;;;;;;;15.43;9.77;;;15.70;99.90;;;;;;5025760;28;20036;-69
2023/09/26 09:20:19;;;;;;;11.88;7.82;;;15.80;99.90;;;;;;5024734;28;20045;-70
2023/09/26 09:22:48;;;;;;;11.43;9.23;;;15.80;99.90;;;;;;5025655;28;20057;-70
2023/09/26 09:25:14;;;;;;;13.23;9.30;;;15.80;99.90;;;;;;5025689;28;20045;-70
2023/09/26 09:27:43;;;;;;;13.57;8.63;;;15.80;99.90;;;;;;5025823;28;20048;-70
2023/09/26 09:30:19;;;;;;;18.45;9.32;;;15.90;99.90;;;;;;5025298;28;20080;-71
2023/09/26 09:32:44;;;;;;;14.30;8.88;;;15.80;99.90;;;;;;5025747;28;20041;-69
2023/09/26 09:35:13;;;;;;;13.40;8.07;;;15.80;99.90;;;;;;5024326;28;20045;-70
2023/09/26 09:37:41;;;;;;;20.45;9.18;;;15.90;99.90;;;;;;5025174;28;20049;-71
2023/09/26 09:40:08;;;;;;;13.52;8.60;;;15.90;99.90;;;;;;5025453;28;20048;-70
2023/09/26 09:42:35;;;;;;;15.55;8.43;;;15.80;99.90;;;;;;5025659;28;20292;-70
2023/09/26 09:45:01;;;;;;;14.15;9.10;;;15.90;99.90;;;;;;5009111;28;20041;-69
2023/09/26 09:47:30;;;;;;;14.38;8.50;;;15.80;99.90;;;;;;5042224;28;20059;-71
2023/09/26 09:49:59;;;;;;;16.05;8.77;;;15.90;99.90;;;;;;5023911;28;20091;-70
2023/09/26 09:52:30;;;;;;;14.15;8.75;;;15.90;99.90;;;;;;5046597;28;20525;-70
2023/09/26 09:54:58;;;;;;;15.80;9.20;;;15.90;99.90;;;;;;5043185;28;20037;-72
2023/09/26 09:57:28;;;;;;;16.40;8.52;;;15.90;99.90;;;;;;5027960;28;20045;-73
2023/09/26 09:59:55;;;;;;;12.23;8.85;;;15.90;99.90;;;;;;5029098;28;20036;-73
2023/09/26 10:02:22;;;;;;;21.25;10.55;;;15.90;99.90;;;;;;5045250;28;20056;-71
2023/09/26 10:04:48;;;;;;;12.40;8.50;;;15.90;99.90;;;;;;5062710;28;20056;-71
2023/09/26 10:07:17;;;;;;;13.15;8.20;;;15.90;99.90;;;;;;5043771;28;20053;-72
2023/09/26 10:09:44;;;;;;;15.10;8.10;;;15.90;99.90;;;;;;5061124;28;20175;-72
2023/09/26 10:12:12;;;;;;;12.55;8.23;;;15.90;99.90;;;;;;5044983;28;20037;-71
2023/09/26 10:14:38;;;;;;;17.42;9.40;;;15.90;99.90;;;;;;5063224;28;20072;-71
2023/09/26 10:17:06;;;;;;;13.65;8.02;;;15.90;99.90;;;;;;5062943;28;20190;-71
2023/09/26 10:19:33;;;;;;;13.35;8.05;;;16.00;99.90;;;;;;5043585;28;20127;-72
2023/09/26 10:22:19;;;;;;;15.02;9.35;;;16.00;99.90;;;;;;5028703;28;20040;-71
2023/09/26 10:24:52;;;;;;;13.82;8.52;;;16.10;99.90;;;;;;5061682;28;20059;-71
2023/09/26 10:27:38;;;;;;;12.90;8.57;;;16.10;99.90;;;;;;5042200;28;20514;-70
2023/09/26 10:30:06;;;;;;;17.08;9.85;;;16.20;99.90;;;;;;5027966;28;20083;-71
2023/09/26 10:32:36;;;;;;;13.52;8.27;;;16.20;99.90;;;;;;5044198;28;20044;-71
2023/09/26 10:35:13;;;;;;;13.95;8.10;;;16.20;99.90;;;;;;5061509;28;20075;-71
2023/09/26 10:37:48;;;;;;;14.10;7.82;;;16.30;99.90;;;;;;5043763;28;20063;-72
2023/09/26 10:40:15;;;;;;;12.13;7.85;;;16.30;99.90;;;;;;5044392;28;20052;-71
2023/09/26 10:42:46;;;;;;;14.40;8.23;;;16.30;99.90;;;;;;5043793;28;20556;-71
2023/09/26 10:45:12;;;;;;;15.60;9.38;;;16.30;99.90;;;;;;5043795;28;20056;-71
2023/09/26 10:47:40;;;;;;;12.45;8.15;;;16.40;99.90;;;;;;5045585;28;20041;-71
2023/09/26 10:50:09;;;;;;;12.38;7.75;;;16.40;99.90;;;;;;5041466;28;20051;-70
2023/09/26 10:52:35;;;;;;;10.50;7.05;;;16.40;99.90;;;;;;5043315;28;20086;-70
2023/09/26 10:55:02;;;;;;;11.98;7.13;;;16.50;99.90;;;;;;5043403;28;20036;-70
2023/09/26 10:57:28;;;;;;;10.85;7.45;;;16.60;99.90;;;;;;5043300;28;20048;-71
2023/09/26 10:59:54;;;;;;;13.02;7.80;;;16.60;99.90;;;;;;5042630;28;20025;-72
2023/09/26 11:02:22;;;;;;;12.85;6.95;;;16.70;99.90;;;;;;5041654;28;20047;-71
2023/09/26 11:04:47;;;;;;;12.75;7.65;;;16.80;99.90;;;;;;5056158;28;20075;-71
2023/09/26 11:07:14;;;;;;;11.77;7.93;;;16.90;99.90;;;;;;5021033;28;20119;-71
2023/09/26 11:09:41;;;;;;;14.10;7.97;;;17.00;99.90;;;;;;5042158;28;20070;-72
2023/09/26 11:12:08;;;;;;;11.55;6.88;;;17.00;99.90;;;;;;5042480;28;20510;-73
2023/09/26 11:14:34;;;;;;;12.27;7.57;;;17.00;99.90;;;;;;5042164;28;20071;-72
2023/09/26 11:16:59;;;;;;;13.57;7.35;;;17.10;99.90;;;;;;5043338;28;20530;-72
2023/09/26 11:19:26;;;;;;;11.40;6.95;;;17.10;99.90;;;;;;5042052;28;20055;-72
2023/09/26 11:21:54;;;;;;;13.48;8.23;;;17.20;99.90;;;;;;5062391;28;20429;-72
2023/09/26 11:24:32;;;;;;;12.25;8.07;;;17.30;99.90;;;;;;5032824;28;20048;-72
2023/09/26 11:27:04;;;;;;;12.38;7.20;;;17.30;99.90;;;;;;5060240;28;20059;-71
2023/09/26 11:29:32;;;;;;;13.10;7.85;;;17.40;99.90;;;;;;5036505;28;20040;-71
2023/09/26 11:31:58;;;;;;;12.93;7.13;;;17.50;99.90;;;;;;5027235;28;20049;-71
2023/09/26 11:34:24;;;;;;;11.75;7.30;;;17.50;99.90;;;;;;5042306;28;20294;-71
2023/09/26 11:36:50;;;;;;;12.10;7.18;;;17.50;99.90;;;;;;5058958;28;20036;-71
2023/09/26 11:39:21;;;;;;;9.70;6.70;;;17.60;99.90;;;;;;5043840;28;20429;-71
2023/09/26 11:41:47;;;;;;;12.00;5.85;;;17.60;99.90;;;;;;5043465;28;20029;-71
2023/09/26 11:44:15;;;;;;;11.00;6.72;;;17.60;99.90;;;;;;5041259;28;20131;-74
2023/09/26 11:46:47;;;;;;;8.75;5.63;;;17.60;99.90;;;;;;5037751;28;20044;-73
2023/09/26 11:49:15;;;;;;;8.48;5.38;;;17.70;99.90;;;;;;5042280;28;20574;-72
2023/09/26 11:51:40;;;;;;;9.88;6.28;;;17.80;99.90;;;;;;5020364;28;20052;-72
2023/09/26 11:54:07;;;;;;;9.55;5.78;;;17.80;99.90;;;;;;5059871;28;20045;-72
2023/09/26 11:56:34;;;;;;;14.52;6.28;;;17.90;99.90;;;;;;5061164;28;20052;-72
2023/09/26 11:59:00;;;;;;;13.52;6.57;;;18.00;99.90;;;;;;5024564;28;20079;-72
2023/09/26 12:01:27;;;;;;;10.93;6.00;;;18.10;99.90;;;;;;5035242;28;20044;-72
2023/09/26 12:03:52;;;;;;;9.85;6.10;;;18.10;99.90;;;;;;5034062;28;20066;-72
2023/09/26 12:06:18;;;;;;;7.95;4.50;;;18.10;99.90;;;;;;5035754;28;20119;-71
2023/09/26 12:08:44;;;;;;;6.72;4.32;;;18.20;99.90;;;;;;5039193;28;20045;-72
2023/09/26 12:11:11;;;;;;;6.82;4.90;;;18.20;99.90;;;;;;5035982;28;20462;-73
2023/09/26 12:13:37;;;;;;;6.97;4.57;;;18.30;99.90;;;;;;5042619;28;20036;-72
2023/09/26 12:16:04;;;;;;;8.40;4.97;;;18.30;99.90;;;;;;5046693;28;20512;-72
2023/09/26 12:18:31;;;;;;;7.63;5.05;;;18.30;99.90;;;;;;5042886;28;20040;-73
2023/09/26 12:20:57;;;;;;;9.10;4.35;;;18.30;99.90;;;;;;5038927;28;20044;-73
2023/09/26 12:23:23;;;;;;;8.35;4.40;;;18.30;99.90;;;;;;5024446;28;20053;-74
2023/09/26 12:25:49;;;;;;;8.35;5.13;;;18.40;99.90;;;;;;5043454;28;20082;-74
2023/09/26 12:28:17;;;;;;;7.43;4.63;;;18.40;99.90;;;;;;5041774;28;20036;-74
2023/09/26 12:30:43;;;;;;;10.05;5.88;;;18.40;99.90;;;;;;5025968;28;20181;-73
2023/09/26 12:33:08;;;;;;;6.50;4.47;;;18.40;99.90;;;;;;5043995;28;20127;-74
2023/09/26 12:35:34;;;;;;;8.50;5.13;;;18.40;99.90;;;;;;5025494;28;20072;-73
2023/09/26 12:38:02;;;;;;;8.15;4.95;;;18.50;99.90;;;;;;5026637;28;20487;-72